Time,TemperatureF,DewpointF,PressureIn,WindDirection,WindDirectionDegrees,WindSpeedMPH,WindSpeedGustMPH,Humidity,HourlyPrecipIn,Conditions,Clouds,dailyrainin,SoftwareType,DateUTC
2013-02-27 00:04:00,32.5,32.0,29.54,SE,139,0.0,3.0,97,0.00,,,0.00,weatherlink.com 1.10,2013-02-27 05:04:00,
2013-02-27 00:19:00,32.5,32.0,29.53,NNW,328,0.0,1.0,97,0.00,,,0.00,weatherlink.com 1.10,2013-02-27 05:19:00,
2013-02-27 00:34:00,32.5,32.0,29.52,ENE,60,2.0,2.0,97,0.00,,,0.00,weatherlink.com 1.10,2013-02-27 05:34:00,
2013-02-27 00:49:00,32.5,32.0,29.52,ESE,103,0.0,1.0,97,0.00,,,0.00,weatherlink.com 1.10,2013-02-27 05:49:00,
2013-02-27 01:04:00,32.6,32.0,29.52,ENE,76,0.0,3.0,97,0.00,,,0.00,weatherlink.com 1.10,2013-02-27 06:04:00,
2013-02-27 01:19:00,32.7,32.0,29.51,SSE,159,0.0,6.0,97,0.00,,,0.00,weatherlink.com 1.10,2013-02-27 06:19:00,
2013-02-27 01:34:00,32.8,32.0,29.51,East,84,2.0,9.0,97,0.00,,,0.00,weatherlink.com 1.10,2013-02-27 06:34:00,
2013-02-27 01:48:00,33.0,32.0,29.51,East,89,0.0,-999.0,97,-99.99,,,0.00,weatherlink.com 1.10,2013-02-27 06:48:00,
2013-02-27 02:04:00,33.1,32.0,29.51,ENE,75,0.0,10.0,97,0.00,,,0.00,weatherlink.com 1.10,2013-02-27 07:04:00,
2013-02-27 02:19:00,33.2,33.0,29.51,NE,34,0.0,9.0,97,0.00,,,0.00,weatherlink.com 1.10,2013-02-27 07:19:00,
2013-02-27 02:34:00,33.2,33.0,29.50,East,86,0.0,7.0,97,0.00,,,0.00,weatherlink.com 1.10,2013-02-27 07:34:00,
2013-02-27 02:49:00,33.1,32.0,29.50,East,91,0.0,10.0,97,0.00,,,0.00,weatherlink.com 1.10,2013-02-27 07:49:00,
2013-02-27 03:04:00,32.9,32.0,29.49,ENE,70,0.0,6.0,97,0.00,,,0.00,weatherlink.com 1.10,2013-02-27 08:04:00,
2013-02-27 03:19:00,32.7,32.0,29.48,ENE,77,5.0,5.0,97,0.00,,,0.00,weatherlink.com 1.10,2013-02-27 08:19:00,
2013-02-27 03:34:00,32.7,32.0,29.48,ESE,103,0.0,6.0,97,0.00,,,0.00,weatherlink.com 1.10,2013-02-27 08:34:00,
2013-02-27 03:49:00,32.7,32.0,29.48,ENE,63,0.0,5.0,97,0.00,,,0.00,weatherlink.com 1.10,2013-02-27 08:49:00,
2013-02-27 04:04:00,32.7,32.0,29.48,NNW,338,0.0,5.0,97,0.00,,,0.00,weatherlink.com 1.10,2013-02-27 09:04:00,
2013-02-27 04:19:00,32.8,32.0,29.48,ESE,103,0.0,4.0,97,0.00,,,0.00,weatherlink.com 1.10,2013-02-27 09:19:00,
2013-02-27 04:34:00,32.7,32.0,29.48,SE,129,0.0,5.0,97,0.00,,,0.00,weatherlink.com 1.10,2013-02-27 09:34:00,
2013-02-27 04:49:00,32.6,32.0,29.48,NNE,25,0.0,2.0,97,0.00,,,0.00,weatherlink.com 1.10,2013-02-27 09:49:00,
2013-02-27 05:04:00,32.5,32.0,29.48,ESE,113,0.0,1.0,97,0.00,,,0.00,weatherlink.com 1.10,2013-02-27 10:04:00,
2013-02-27 05:19:00,32.5,32.0,29.48,ENE,61,0.0,2.0,97,0.00,,,0.00,weatherlink.com 1.10,2013-02-27 10:19:00,
2013-02-27 05:34:00,32.5,32.0,29.47,ENE,72,0.0,1.0,97,0.00,,,0.00,weatherlink.com 1.10,2013-02-27 10:34:00,
2013-02-27 05:49:00,32.5,32.0,29.48,ENE,73,0.0,1.0,97,0.00,,,0.00,weatherlink.com 1.10,2013-02-27 10:49:00,
2013-02-27 06:04:00,32.5,32.0,29.48,SE,126,0.0,1.0,97,0.00,,,0.00,weatherlink.com 1.10,2013-02-27 11:04:00,
2013-02-27 06:19:00,32.6,32.0,29.48,NE,48,0.0,2.0,97,0.00,,,0.00,weatherlink.com 1.10,2013-02-27 11:19:00,
2013-02-27 06:34:00,32.6,32.0,29.48,East,101,0.0,3.0,97,0.00,,,0.00,weatherlink.com 1.10,2013-02-27 11:34:00,
2013-02-27 06:49:00,32.6,32.0,29.48,NE,39,0.0,2.0,97,0.00,,,0.00,weatherlink.com 1.10,2013-02-27 11:49:00,
2013-02-27 07:04:00,32.6,32.0,29.48,East,86,0.0,2.0,97,0.00,,,0.00,weatherlink.com 1.10,2013-02-27 12:04:00,
2013-02-27 07:19:00,32.6,32.0,29.49,East,82,0.0,1.0,97,0.00,,,0.00,weatherlink.com 1.10,2013-02-27 12:19:00,
2013-02-27 07:34:00,32.6,32.0,29.49,ESE,120,0.0,1.0,97,0.00,,,0.00,weatherlink.com 1.10,2013-02-27 12:34:00,
2013-02-27 07:49:00,32.7,32.0,29.50,ESE,117,0.0,1.0,97,0.00,,,0.00,weatherlink.com 1.10,2013-02-27 12:49:00,
2013-02-27 08:04:00,32.8,32.0,29.50,ENE,75,0.0,3.0,98,0.00,,,0.00,weatherlink.com 1.10,2013-02-27 13:04:00,
2013-02-27 08:19:00,33.0,33.0,29.50,ESE,105,1.0,2.0,98,0.00,,,0.00,weatherlink.com 1.10,2013-02-27 13:19:00,
2013-02-27 08:34:00,33.2,33.0,29.50,ESE,105,0.0,2.0,98,0.00,,,0.00,weatherlink.com 1.10,2013-02-27 13:34:00,
2013-02-27 08:49:00,33.4,33.0,29.50,East,79,0.0,3.0,97,0.00,,,0.00,weatherlink.com 1.10,2013-02-27 13:49:00,
2013-02-27 10:35:00,34.4,34.0,29.52,East,98,1.0,4.0,97,0.01,,,0.02,weatherlink.com 1.10,2013-02-27 15:35:00,
2013-02-27 10:43:00,34.4,34.0,29.51,East,100,1.0,5.0,97,0.02,,,0.03,weatherlink.com 1.10,2013-02-27 15:43:00,
2013-02-27 13:12:00,36.4,35.0,29.52,SSE,160,0.0,3.0,94,0.06,,,0.23,weatherlink.com 1.10,2013-02-27 18:12:00,
2013-02-27 13:20:00,36.6,35.0,29.52,SSE,158,0.0,0.0,94,0.06,,,0.24,weatherlink.com 1.10,2013-02-27 18:20:00,
2013-02-27 13:35:00,36.4,34.0,29.52,SSE,163,1.0,3.0,92,0.05,,,0.25,weatherlink.com 1.10,2013-02-27 18:35:00,
2013-02-27 13:50:00,36.4,35.0,29.52,ESE,110,0.0,1.0,93,0.05,,,0.26,weatherlink.com 1.10,2013-02-27 18:50:00,
2013-02-27 14:05:00,36.2,34.0,29.51,SSW,203,0.0,2.0,92,0.04,,,0.27,weatherlink.com 1.10,2013-02-27 19:05:00,
2013-02-27 14:20:00,36.1,34.0,29.51,SE,136,0.0,3.0,93,0.04,,,0.28,weatherlink.com 1.10,2013-02-27 19:20:00,
2013-02-27 14:35:00,36.1,34.0,29.51,SSE,155,0.0,3.0,92,0.04,,,0.29,weatherlink.com 1.10,2013-02-27 19:35:00,
2013-02-27 14:50:00,35.9,34.0,29.51,West,260,0.0,1.0,92,0.04,,,0.30,weatherlink.com 1.10,2013-02-27 19:50:00,
2013-02-27 15:05:00,36.2,34.0,29.52,SE,136,0.0,1.0,92,0.04,,,0.31,weatherlink.com 1.10,2013-02-27 20:05:00,
2013-02-27 15:20:00,36.3,34.0,29.52,WSW,246,0.0,4.0,92,0.03,,,0.31,weatherlink.com 1.10,2013-02-27 20:20:00,
2013-02-27 15:35:00,36.1,34.0,29.52,SSE,155,0.0,0.0,92,0.03,,,0.32,weatherlink.com 1.10,2013-02-27 20:35:00,
2013-02-27 15:50:00,36.0,34.0,29.53,SE,141,0.0,3.0,92,0.03,,,0.33,weatherlink.com 1.10,2013-02-27 20:50:00,
2013-02-27 16:05:00,35.7,34.0,29.53,SSE,160,0.0,4.0,92,0.02,,,0.33,weatherlink.com 1.10,2013-02-27 21:05:00,
2013-02-27 16:20:00,35.5,33.0,29.53,SSE,159,0.0,4.0,92,0.03,,,0.34,weatherlink.com 1.10,2013-02-27 21:20:00,
2013-02-27 16:35:00,35.4,34.0,29.53,South,179,0.0,4.0,93,0.03,,,0.35,weatherlink.com 1.10,2013-02-27 21:35:00,
2013-02-27 16:50:00,35.3,34.0,29.53,SSW,212,0.0,1.0,93,0.02,,,0.35,weatherlink.com 1.10,2013-02-27 21:50:00,
2013-02-27 17:05:00,35.1,33.0,29.54,SSE,156,0.0,1.0,93,0.03,,,0.36,weatherlink.com 1.10,2013-02-27 22:05:00,
2013-02-27 17:20:00,34.9,33.0,29.54,SSE,156,0.0,0.0,94,0.02,,,0.36,weatherlink.com 1.10,2013-02-27 22:20:00,
2013-02-27 17:36:00,34.7,33.0,29.54,West,267,0.0,0.0,94,0.01,,,0.36,weatherlink.com 1.10,2013-02-27 22:36:00,
2013-02-27 17:50:00,34.5,33.0,29.54,SE,128,0.0,0.0,95,0.02,,,0.37,weatherlink.com 1.10,2013-02-27 22:50:00,
2013-02-27 18:05:00,34.3,33.0,29.55,SE,129,0.0,0.0,95,0.01,,,0.37,weatherlink.com 1.10,2013-02-27 23:05:00,
2013-02-27 18:21:00,34.1,33.0,29.55,SE,130,0.0,0.0,95,0.01,,,0.37,weatherlink.com 1.10,2013-02-27 23:21:00,
2013-02-27 18:36:00,33.9,33.0,29.55,SE,129,0.0,0.0,96,0.02,,,0.38,weatherlink.com 1.10,2013-02-27 23:36:00,
2013-02-27 18:51:00,33.7,33.0,29.56,SE,132,0.0,0.0,96,0.01,,,0.38,weatherlink.com 1.10,2013-02-27 23:51:00,
2013-02-27 19:06:00,33.6,33.0,29.56,SE,131,0.0,0.0,96,0.01,,,0.38,weatherlink.com 1.10,2013-02-28 00:06:00,
2013-02-27 19:21:00,33.5,33.0,29.56,SSE,155,0.0,0.0,96,0.02,,,0.39,weatherlink.com 1.10,2013-02-28 00:21:00,
2013-02-27 19:36:00,33.3,32.0,29.56,SSW,208,0.0,0.0,96,0.01,,,0.39,weatherlink.com 1.10,2013-02-28 00:36:00,
2013-02-27 19:52:00,33.2,32.0,29.56,SSW,207,0.0,0.0,96,0.01,,,0.39,weatherlink.com 1.10,2013-02-28 00:52:00,
2013-02-27 20:06:00,33.1,32.0,29.56,SSW,207,0.0,0.0,97,0.01,,,0.39,weatherlink.com 1.10,2013-02-28 01:06:00,
2013-02-27 20:21:00,33.1,32.0,29.56,SSW,207,0.0,0.0,97,0.00,,,0.39,weatherlink.com 1.10,2013-02-28 01:21:00,
2013-02-27 20:36:00,33.0,32.0,29.56,SSW,208,0.0,0.0,97,0.01,,,0.40,weatherlink.com 1.10,2013-02-28 01:36:00,
2013-02-27 20:51:00,32.9,32.0,29.56,SSW,208,0.0,0.0,97,0.01,,,0.40,weatherlink.com 1.10,2013-02-28 01:51:00,
2013-02-27 21:06:00,32.8,32.0,29.56,SSW,208,0.0,0.0,97,0.01,,,0.40,weatherlink.com 1.10,2013-02-28 02:06:00,
2013-02-27 21:21:00,32.7,32.0,29.56,SSW,208,0.0,0.0,97,0.01,,,0.40,weatherlink.com 1.10,2013-02-28 02:21:00,
2013-02-27 21:36:00,32.5,32.0,29.56,SSW,208,0.0,0.0,97,0.00,,,0.40,weatherlink.com 1.10,2013-02-28 02:36:00,
2013-02-27 21:51:00,32.4,32.0,29.56,SSW,208,0.0,0.0,97,0.00,,,0.40,weatherlink.com 1.10,2013-02-28 02:51:00,
2013-02-27 22:06:00,32.4,32.0,29.56,SSW,208,0.0,0.0,97,0.00,,,0.40,weatherlink.com 1.10,2013-02-28 03:06:00,
2013-02-27 22:21:00,32.4,32.0,29.56,SSW,208,0.0,0.0,97,0.00,,,0.40,weatherlink.com 1.10,2013-02-28 03:21:00,
2013-02-27 22:36:00,32.4,32.0,29.56,SSW,208,0.0,0.0,97,0.01,,,0.41,weatherlink.com 1.10,2013-02-28 03:36:00,
2013-02-27 22:51:00,32.4,32.0,29.55,SSW,208,0.0,0.0,97,0.01,,,0.41,weatherlink.com 1.10,2013-02-28 03:51:00,
2013-02-27 23:06:00,32.4,32.0,29.55,SSW,208,0.0,0.0,97,0.01,,,0.41,weatherlink.com 1.10,2013-02-28 04:06:00,
2013-02-27 23:21:00,32.4,32.0,29.55,WNW,297,3.0,3.0,97,0.01,,,0.41,weatherlink.com 1.10,2013-02-28 04:21:00,
2013-02-27 23:36:00,32.4,32.0,29.55,NNW,338,2.0,3.0,97,0.00,,,0.41,weatherlink.com 1.10,2013-02-28 04:36:00,
2013-02-27 23:51:00,32.4,32.0,29.55,NW,307,2.0,4.0,97,0.00,,,0.41,weatherlink.com 1.10,2013-02-28 04:51:00,